Time;durP1;ratioP1;P1;durP2;ratioP2;P2;SDS_P1;SDS_P2;PMS_P1;PMS_P2;Temp;Humidity;BMP_temperature;BMP_pressure;BME280_temperature;BME280_humidity;BME280_pressure;Samples;Min_cycle;Max_cycle;Signal;HPM_P1;HPM_P2
2021/03/24 06:31:41;;;;;;;23.18;12.00;;;;;;;5.35;68.95;100958.36;1763338;77;27514;-60
2021/03/24 06:34:23;;;;;;;22.75;11.97;;;;;;;5.41;68.95;100963.51;1699109;83;25452;-60
2021/03/24 06:37:41;;;;;;;25.80;13.98;;;;;;;5.51;68.77;100965.43;1866425;76;34995;-60
2021/03/24 06:40:56;;;;;;;27.93;14.33;;;;;;;5.49;68.78;100960.86;1840352;77;25482;-61
2021/03/24 06:44:13;;;;;;;22.60;12.33;;;;;;;5.56;68.55;100959.30;1826315;78;25780;-61
2021/03/24 06:46:45;;;;;;;26.25;13.50;;;;;;;5.60;68.53;100966.58;1826254;78;25493;-59
2021/03/24 06:50:10;;;;;;;24.18;13.45;;;;;;;5.66;68.60;100966.07;1830248;77;25251;-62
2021/03/24 06:53:06;;;;;;;23.45;14.13;;;;;;;5.73;68.38;100969.87;1859920;77;25226;-61
2021/03/24 06:55:58;;;;;;;28.85;14.07;;;;;;;5.79;68.38;100970.98;1859787;77;25591;-60
2021/03/24 06:59:06;;;;;;;28.20;13.90;;;;;;;5.84;68.19;100971.55;1860008;77;25731;-61
2021/03/24 07:02:22;;;;;;;26.62;13.35;;;;;;;5.90;68.12;100964.33;1860041;77;25831;-63
2021/03/24 07:05:24;;;;;;;22.00;12.70;;;;;;;5.97;68.02;100974.31;1827050;77;25280;-61
2021/03/24 07:08:27;;;;;;;24.82;13.72;;;;;;;6.03;67.98;100979.17;1859979;77;25372;-61
2021/03/24 07:11:29;;;;;;;25.25;14.20;;;;;;;6.07;67.69;100985.11;1833304;76;25424;-60
2021/03/24 07:14:24;;;;;;;25.20;13.80;;;;;;;6.14;67.86;100983.53;1773784;80;28493;-59
2021/03/24 07:17:27;;;;;;;21.80;12.05;;;;;;;6.24;67.73;100987.60;1757817;81;25397;-60
2021/03/24 07:20:23;;;;;;;23.07;12.55;;;;;;;6.35;67.70;100991.95;1781003;80;25404;-60
2021/03/24 07:23:16;;;;;;;22.10;12.23;;;;;;;6.45;67.48;100990.36;1781052;80;25596;-61
2021/03/24 07:25:46;;;;;;;22.93;12.55;;;;;;;6.54;67.33;100994.97;1781177;80;25181;-60
2021/03/24 07:28:25;;;;;;;21.15;12.15;;;;;;;6.62;67.01;100997.66;1780756;80;25738;-60
2021/03/24 07:31:38;;;;;;;19.30;12.03;;;;;;;6.70;67.07;101000.38;1780250;80;25506;-58
2021/03/24 07:34:22;;;;;;;22.13;11.57;;;;;;;6.81;67.01;101007.41;1825250;78;25454;-61
2021/03/24 07:37:06;;;;;;;20.12;11.40;;;;;;;6.93;66.60;101013.88;1791611;80;25279;-61
2021/03/24 07:40:00;;;;;;;22.75;11.57;;;;;;;7.00;66.53;101014.94;1790993;80;25505;-59
2021/03/24 07:42:49;;;;;;;22.50;11.48;;;;;;;7.07;66.23;101014.97;1825195;78;25706;-61
2021/03/24 07:46:12;;;;;;;21.75;11.78;;;;;;;7.14;65.49;101021.98;1825061;78;25505;-61
2021/03/24 07:49:05;;;;;;;19.85;12.45;;;;;;;7.11;65.44;101018.72;1824565;78;25470;-62
2021/03/24 07:52:02;;;;;;;21.95;11.53;;;;;;;7.16;65.33;101026.55;1821938;78;25520;-62
2021/03/24 07:58:51;;;;;;;20.68;10.40;;;;;;;7.29;65.04;101028.72;1790061;78;28051;-62
2021/03/24 08:01:38;;;;;;;19.07;10.90;;;;;;;7.29;64.92;101031.41;1824534;78;25508;-60
2021/03/24 08:04:27;;;;;;;22.27;11.22;;;;;;;7.36;64.79;101031.14;1756521;79;26316;-60
2021/03/24 08:07:26;;;;;;;22.40;11.10;;;;;;;7.36;64.36;101030.59;1757714;79;25507;-61
2021/03/24 08:10:33;;;;;;;19.10;11.03;;;;;;;7.39;64.67;101034.61;1754984;80;25462;-61
2021/03/24 08:13:20;;;;;;;17.92;11.25;;;;;;;7.45;64.37;101035.69;1773281;80;25812;-60
2021/03/24 08:16:16;;;;;;;21.20;11.10;;;;;;;7.47;64.21;101040.81;1788853;79;25480;-61
2021/03/24 08:19:03;;;;;;;18.02;11.08;;;;;;;7.55;64.46;101036.78;1789735;78;25501;-61
2021/03/24 08:22:07;;;;;;;18.62;10.45;;;;;;;7.62;64.33;101038.66;1789021;79;25595;-60
2021/03/24 08:24:57;;;;;;;20.00;10.75;;;;;;;7.66;64.17;101038.38;1810678;79;25519;-61
2021/03/24 08:27:37;;;;;;;23.00;11.55;;;;;;;7.77;63.87;101041.88;1803588;79;25725;-61
2021/03/24 08:30:30;;;;;;;22.95;11.33;;;;;;;7.82;63.55;101033.24;1808079;79;25771;-62
2021/03/24 08:33:40;;;;;;;21.87;11.03;;;;;;;7.88;63.56;101042.11;1803085;79;25652;-62
2021/03/24 08:36:25;;;;;;;20.88;11.22;;;;;;;7.98;63.58;101034.55;1821826;78;25562;-59
2021/03/24 08:39:30;;;;;;;21.70;11.65;;;;;;;8.16;63.61;101037.22;1819887;78;25597;-62
2021/03/24 08:42:36;;;;;;;20.62;11.88;;;;;;;8.29;63.40;101033.94;1790105;79;26615;-61
2021/03/24 08:45:34;;;;;;;23.40;12.28;;;;;;;8.40;62.70;101033.35;1766290;80;25518;-61
2021/03/24 08:48:08;;;;;;;22.65;12.88;;;;;;;8.50;62.67;101028.50;1784487;80;25571;-61
2021/03/24 08:50:42;;;;;;;25.62;13.22;;;;;;;8.66;62.73;101031.36;1773730;79;25652;-61
2021/03/24 08:53:28;;;;;;;28.20;13.98;;;;;;;8.79;62.29;101024.02;1779129;80;25329;-60
2021/03/24 08:56:12;;;;;;;30.57;13.90;;;;;;;8.92;62.10;101028.52;1777250;80;25807;-59
2021/03/24 08:58:47;;;;;;;24.05;13.83;;;;;;;9.00;61.75;101026.58;1746999;82;25530;-60
2021/03/24 09:01:36;;;;;;;21.68;14.13;;;;;;;9.12;61.66;101024.88;1758887;81;25511;-62
2021/03/24 09:04:38;;;;;;;;;;;;;;;9.22;61.35;101019.95;1729619;83;25497;-61
2021/03/24 09:07:35;;;;;;;25.02;12.95;;;;;;;9.35;61.13;101021.47;1759196;81;25904;-61
2021/03/24 09:10:28;;;;;;;22.30;12.55;;;;;;;9.49;60.90;101018.91;1771355;80;26223;-61
2021/03/24 09:13:24;;;;;;;25.32;13.35;;;;;;;9.59;60.21;101024.78;1785264;79;25565;-61
2021/03/24 09:16:16;;;;;;;20.35;12.45;;;;;;;9.67;60.18;101024.69;1758353;79;25542;-60
2021/03/24 09:19:06;;;;;;;20.80;12.30;;;;;;;9.71;59.94;101025.75;1684229;84;25537;-61
2021/03/24 09:22:11;;;;;;;26.25;11.88;;;;;;;9.86;59.58;101020.74;1885076;76;34780;-60
2021/03/24 09:25:21;;;;;;;23.95;11.78;;;;;;;9.84;59.49;101022.91;1848039;77;25647;-60
2021/03/24 09:28:14;;;;;;;21.15;11.12;;;;;;;9.82;58.78;101015.08;1824600;78;25839;-62
2021/03/24 09:31:06;;;;;;;17.42;9.90;;;;;;;9.77;58.23;101023.80;1823198;78;25656;-61
2021/03/24 09:33:58;;;;;;;18.30;11.15;;;;;;;9.73;58.52;101021.66;1806875;78;26207;-61
2021/03/24 09:36:50;;;;;;;17.45;10.48;;;;;;;9.71;58.20;101019.79;1824453;78;26109;-62
2021/03/24 09:39:33;;;;;;;16.52;10.80;;;;;;;9.64;58.15;101012.57;1824622;78;25521;-61
2021/03/24 09:42:08;;;;;;;19.55;10.38;;;;;;;9.63;58.25;101012.30;1825239;78;25744;-61
2021/03/24 09:45:05;;;;;;;16.17;10.98;;;;;;;9.63;58.09;101015.55;1823580;78;25492;-61
2021/03/24 09:47:40;;;;;;;15.53;10.30;;;;;;;9.60;57.91;101010.72;1825748;78;25544;-61
2021/03/24 09:50:21;;;;;;;14.87;9.33;;;;;;;9.52;57.78;101012.95;1825666;78;25479;-61
2021/03/24 09:53:02;;;;;;;27.55;16.10;;;;;;;9.54;58.03;101016.72;1830799;76;25515;-62
2021/03/24 09:55:36;;;;;;;23.87;13.80;;;;;;;9.54;57.84;101012.67;1839463;77;25801;-61
2021/03/24 09:58:29;;;;;;;17.35;9.80;;;;;;;9.54;57.87;101012.67;1840101;77;25595;-61
2021/03/24 10:01:24;;;;;;;22.07;10.72;;;;;;;9.59;57.77;101009.13;1829439;77;25597;-63
2021/03/24 10:04:11;;;;;;;23.45;10.50;;;;;;;9.59;57.70;101007.22;1825848;78;25314;-63
2021/03/24 10:07:10;;;;;;;14.80;9.50;;;;;;;9.66;57.66;101014.99;1821091;78;25646;-62
2021/03/24 10:09:58;;;;;;;16.55;10.43;;;;;;;9.67;57.51;101009.30;1834577;76;25695;-61
2021/03/24 10:12:32;;;;;;;16.12;10.95;;;;;;;9.64;57.34;101006.37;1742125;80;25767;-61
2021/03/24 10:15:16;;;;;;;20.43;11.22;;;;;;;9.64;57.38;101010.42;1737392;82;25690;-62
2021/03/24 10:18:06;;;;;;;20.17;12.18;;;;;;;9.60;57.37;101007.46;1764669;80;25471;-62
2021/03/24 10:20:41;;;;;;;17.00;10.05;;;;;;;9.56;57.10;101005.08;1780570;80;25541;-62
2021/03/24 10:23:17;;;;;;;16.23;9.68;;;;;;;9.53;56.92;101001.07;1785247;80;26757;-62
2021/03/24 10:25:50;;;;;;;18.75;9.68;;;;;;;9.49;56.83;101004.61;1785402;80;25559;-66
2021/03/24 10:28:41;;;;;;;17.50;9.18;;;;;;;9.46;56.86;101001.12;1785733;80;25572;-62
2021/03/24 10:31:22;;;;;;;16.82;8.95;;;;;;;9.45;57.04;100991.41;1785606;80;25374;-61
2021/03/24 10:34:17;;;;;;;14.83;9.63;;;;;;;9.50;57.06;100998.11;1848992;75;34628;-63
2021/03/24 10:37:08;;;;;;;16.82;9.85;;;;;;;9.47;57.05;100998.70;1802037;78;25781;-64
2021/03/24 10:39:47;;;;;;;16.60;9.63;;;;;;;9.51;57.05;100993.77;1819286;78;25694;-62
2021/03/24 10:42:22;;;;;;;16.25;9.60;;;;;;;9.53;56.63;100998.89;1819125;78;25319;-62
2021/03/24 10:45:22;;;;;;;13.18;8.15;;;;;;;9.47;56.68;100995.44;1819273;78;25449;-62
2021/03/24 10:47:57;;;;;;;16.75;8.95;;;;;;;9.47;56.84;100991.95;1819248;78;25612;-63
2021/03/24 10:50:45;;;;;;;16.27;9.10;;;;;;;9.49;56.77;100993.81;1819204;78;25585;-62
2021/03/24 10:53:25;;;;;;;13.65;9.00;;;;;;;9.50;56.70;100988.66;1818198;78;25785;-61
2021/03/24 10:56:08;;;;;;;15.58;8.95;;;;;;;9.55;56.83;100985.91;1817708;78;25738;-64
2021/03/24 10:59:04;;;;;;;15.85;8.70;;;;;;;9.65;56.88;100983.13;1819182;78;25614;-63
2021/03/24 11:01:54;;;;;;;16.80;8.73;;;;;;;9.77;56.71;100978.66;1748404;81;25543;-63
2021/03/24 11:04:52;;;;;;;13.75;8.95;;;;;;;9.86;56.49;100982.36;1734444;81;25693;-63
2021/03/24 11:07:42;;;;;;;14.55;9.65;;;;;;;9.96;56.15;100978.75;1753832;81;26366;-62
2021/03/24 11:10:46;;;;;;;15.83;8.98;;;;;;;10.04;56.20;100980.00;1753460;81;25439;-63
2021/03/24 11:13:40;;;;;;;15.75;8.65;;;;;;;10.23;56.30;100980.03;1745914;81;25501;-63
2021/03/24 11:16:24;;;;;;;13.95;8.80;;;;;;;10.37;55.89;100970.16;1717634;83;25498;-66
2021/03/24 11:19:13;;;;;;;12.98;8.10;;;;;;;10.51;55.57;100978.36;1713669;81;25350;-63
2021/03/24 11:21:48;;;;;;;14.33;8.78;;;;;;;10.56;54.95;100970.17;1718344;81;25876;-62
2021/03/24 11:24:35;;;;;;;16.95;8.35;;;;;;;10.54;54.79;100972.90;1713524;81;25701;-62
2021/03/24 11:27:34;;;;;;;14.43;10.50;;;;;;;10.58;54.39;100969.33;1855708;75;33224;-62
2021/03/24 11:30:24;;;;;;;12.90;8.13;;;;;;;10.55;54.44;100969.91;1853990;76;25566;-63
2021/03/24 11:32:56;;;;;;;15.38;8.38;;;;;;;10.46;54.05;100971.66;1834909;76;26594;-61
2021/03/24 11:36:00;;;;;;;12.30;8.35;;;;;;;10.36;54.07;100966.39;1819043;78;25608;-63
2021/03/24 11:38:44;;;;;;;12.85;7.60;;;;;;;10.31;54.14;100968.58;1819898;77;25464;-63
2021/03/24 11:41:24;;;;;;;13.53;8.68;;;;;;;10.24;54.29;100967.58;1825581;78;25495;-63
2021/03/24 11:44:09;;;;;;;13.93;8.48;;;;;;;10.19;54.27;100972.26;1815944;78;25777;-63
2021/03/24 11:46:45;;;;;;;11.70;8.75;;;;;;;10.16;54.45;100971.48;1825686;78;28009;-62
2021/03/24 11:49:17;;;;;;;14.28;8.60;;;;;;;10.13;54.54;100964.77;1825901;78;25507;-63
2021/03/24 11:52:01;;;;;;;15.98;9.83;;;;;;;10.16;54.62;100967.42;1826070;78;25298;-62
2021/03/24 11:54:50;;;;;;;16.30;9.93;;;;;;;10.23;54.74;100973.27;1825309;78;25576;-63
2021/03/24 11:57:34;;;;;;;17.48;10.05;;;;;;;10.23;54.41;100965.98;1826096;78;25540;-62
2021/03/24 12:00:15;;;;;;;19.92;10.98;;;;;;;10.25;54.27;100960.30;1825850;78;25750;-62
2021/03/24 12:03:16;;;;;;;18.55;11.70;;;;;;;10.24;54.10;100963.52;1835952;77;25697;-63
2021/03/24 12:06:05;;;;;;;16.67;11.90;;;;;;;10.19;54.05;100958.73;1848140;77;25688;-62
2021/03/24 12:09:03;;;;;;;23.77;11.97;;;;;;;10.17;54.17;100964.98;1851183;77;25623;-62
2021/03/24 12:11:34;;;;;;;21.23;11.73;;;;;;;10.15;54.39;100966.63;1858557;77;25716;-63
2021/03/24 12:14:17;;;;;;;15.18;11.10;;;;;;;10.22;54.44;100963.58;1851112;76;25809;-63
2021/03/24 12:16:53;;;;;;;14.80;10.82;;;;;;;10.21;54.33;100963.30;1835719;77;25662;-63
2021/03/24 12:19:30;;;;;;;18.23;10.98;;;;;;;10.27;54.30;100960.25;1826041;78;25549;-62
2021/03/24 12:22:26;;;;;;;18.30;11.63;;;;;;;10.30;54.16;100960.23;1856615;77;25736;-63
2021/03/24 12:25:22;;;;;;;19.75;11.25;;;;;;;10.32;54.25;100958.59;1862961;77;25432;-62
2021/03/24 12:27:55;;;;;;;15.85;11.20;;;;;;;10.35;53.85;100957.48;1863144;77;26639;-62
2021/03/24 12:30:47;;;;;;;15.70;11.08;;;;;;;10.37;54.09;100957.99;1863009;77;25258;-63
2021/03/24 12:33:22;;;;;;;20.43;10.50;;;;;;;10.44;54.05;100964.39;1842337;77;25569;-62
2021/03/24 12:36:08;;;;;;;17.00;10.65;;;;;;;10.49;53.92;100954.03;1826004;78;25523;-62
2021/03/24 12:38:55;;;;;;;21.37;10.43;;;;;;;10.49;53.40;100954.03;1825167;78;25208;-62
2021/03/24 12:41:31;;;;;;;20.85;10.65;;;;;;;10.42;53.47;100957.09;1827121;76;25693;-61
2021/03/24 12:44:15;;;;;;;18.20;11.10;;;;;;;10.37;53.44;100949.88;1825160;78;25840;-61
2021/03/24 12:47:05;;;;;;;16.02;9.70;;;;;;;10.36;53.52;100949.61;1796635;79;25532;-61
2021/03/24 12:49:36;;;;;;;20.43;11.43;;;;;;;10.38;53.57;100947.41;1771211;79;25626;-61
2021/03/24 12:52:29;;;;;;;15.85;10.48;;;;;;;10.39;53.52;100949.59;1805393;79;25141;-62
2021/03/24 12:54:56;;;;;;;14.85;9.98;;;;;;;10.40;53.36;100952.53;1790043;79;25717;-61
2021/03/24 12:58:05;;;;;;;23.45;11.22;;;;;;;10.40;53.48;100948.48;1788889;79;25760;-62
2021/03/24 13:00:40;;;;;;;19.42;10.18;;;;;;;10.44;53.58;100944.91;1784077;79;25323;-61
2021/03/24 13:03:32;;;;;;;16.07;10.30;;;;;;;10.53;53.65;100938.84;1797381;79;25521;-61
2021/03/24 13:06:16;;;;;;;19.85;11.55;;;;;;;10.54;53.41;100929.62;1796043;79;25322;-61
2021/03/24 13:08:54;;;;;;;18.02;10.60;;;;;;;10.52;53.39;100933.99;1778155;79;27453;-60
2021/03/24 13:11:55;;;;;;;16.25;10.48;;;;;;;10.48;53.28;100936.22;1774468;79;25584;-61
2021/03/24 13:15:00;;;;;;;46.13;20.57;;;;;;;10.40;53.18;100923.61;1795042;79;25580;-62
2021/03/24 13:18:13;;;;;;;19.12;11.90;;;;;;;10.31;52.96;100927.23;1795449;79;25611;-62
2021/03/24 13:21:20;;;;;;;18.05;10.72;;;;;;;10.23;52.92;100931.37;1796028;79;25548;-63
2021/03/24 13:24:01;;;;;;;19.17;11.15;;;;;;;10.15;53.21;100922.02;1776053;79;26194;-62
2021/03/24 13:26:37;;;;;;;19.15;10.85;;;;;;;10.14;53.29;100923.66;1765489;80;25163;-62
2021/03/24 13:29:35;;;;;;;16.35;10.60;;;;;;;10.08;53.15;100921.58;1765251;81;25603;-62
2021/03/24 13:32:10;;;;;;;17.30;10.63;;;;;;;10.06;53.42;100917.81;1775002;79;26136;-62
2021/03/24 13:35:01;;;;;;;16.87;10.65;;;;;;;10.11;53.65;100918.27;1794773;79;25608;-62
2021/03/24 13:37:30;;;;;;;16.80;10.45;;;;;;;10.18;53.63;100915.22;1732499;79;25806;-62
2021/03/24 13:40:08;;;;;;;16.50;11.18;;;;;;;10.23;53.65;100920.55;1793740;79;25594;-63
2021/03/24 13:42:42;;;;;;;13.93;10.00;;;;;;;10.21;53.25;100915.98;1785139;79;26237;-62
2021/03/24 13:45:16;;;;;;;15.65;10.63;;;;;;;10.12;52.81;100910.98;1772694;79;25718;-63
2021/03/24 13:48:09;;;;;;;16.87;11.03;;;;;;;10.02;52.87;100907.86;1770262;79;25282;-61
2021/03/24 13:50:44;;;;;;;17.05;10.80;;;;;;;9.99;53.42;100909.23;1776695;79;26185;-62
2021/03/24 13:53:53;;;;;;;20.25;11.18;;;;;;;10.02;53.57;100901.91;1775591;79;25551;-62
2021/03/24 13:56:43;;;;;;;16.40;11.83;;;;;;;10.07;53.69;100903.19;1780495;79;25457;-62
2021/03/24 13:59:24;;;;;;;18.10;11.57;;;;;;;10.16;53.75;100897.93;1795857;79;25419;-62
2021/03/24 14:02:23;;;;;;;17.27;11.22;;;;;;;10.24;53.04;100899.98;1795776;79;25303;-61
2021/03/24 14:05:23;;;;;;;20.68;12.63;;;;;;;10.17;53.19;100900.11;1790651;79;25703;-62
2021/03/24 14:08:27;;;;;;;22.32;12.68;;;;;;;10.20;53.06;100896.80;1779080;79;25644;-62
2021/03/24 14:11:49;;;;;;;21.68;13.72;;;;;;;10.26;53.33;100895.09;1781603;79;25477;-64
2021/03/24 14:14:38;;;;;;;22.75;13.75;;;;;;;10.32;52.83;100893.17;1775521;79;25781;-64
2021/03/24 14:17:19;;;;;;;21.93;14.00;;;;;;;10.24;52.11;100889.73;1777342;79;25260;-63
2021/03/24 14:19:58;;;;;;;22.60;14.38;;;;;;;10.12;52.41;100888.02;1774487;79;25718;-63
2021/03/24 14:22:35;;;;;;;21.02;14.30;;;;;;;10.07;52.37;100892.38;1764290;79;25615;-63
2021/03/24 14:25:29;;;;;;;22.58;13.80;;;;;;;9.96;52.08;100885.52;1774128;79;25460;-63
2021/03/24 14:28:00;;;;;;;24.95;14.38;;;;;;;9.84;52.12;100882.41;1775135;79;26586;-62
2021/03/24 14:31:07;;;;;;;23.80;14.80;;;;;;;9.82;52.93;100885.39;1772987;79;25503;-62
2021/03/24 14:33:51;;;;;;;20.57;15.05;;;;;;;9.85;53.08;100882.12;1764642;81;28091;-61
2021/03/24 14:36:32;;;;;;;26.40;15.38;;;;;;;9.86;52.80;100884.30;1764761;81;25454;-61
2021/03/24 14:39:33;;;;;;;24.65;16.15;;;;;;;9.83;52.94;100882.16;1764911;81;25545;-61
2021/03/24 14:42:17;;;;;;;23.87;16.05;;;;;;;9.72;52.17;100882.29;1764669;79;25447;-63
2021/03/24 14:45:21;;;;;;;24.75;18.73;;;;;;;9.59;52.72;100876.23;1772241;79;25483;-62
2021/03/24 14:48:15;;;;;;;26.80;19.07;;;;;;;9.53;52.89;100874.14;1766148;79;25695;-62
2021/03/24 14:51:08;;;;;;;28.55;18.42;;;;;;;9.49;53.29;100872.30;1764500;81;25765;-62
2021/03/24 14:53:42;;;;;;;33.85;20.82;;;;;;;9.48;53.41;100863.39;1785544;79;25713;-62
2021/03/24 14:56:32;;;;;;;24.35;17.85;;;;;;;9.47;53.50;100873.93;1737805;79;25538;-63
2021/03/24 14:59:51;;;;;;;29.37;18.70;;;;;;;9.46;53.38;100870.95;1849506;75;34627;-63
2021/03/24 15:02:29;;;;;;;29.90;17.87;;;;;;;9.35;53.33;100873.52;1845283;77;25464;-62
2021/03/24 15:05:08;;;;;;;25.52;17.62;;;;;;;9.22;53.32;100861.50;1829772;77;26376;-60
2021/03/24 15:07:42;;;;;;;33.33;21.33;;;;;;;9.13;53.49;100864.02;1824377;77;25559;-61
2021/03/24 15:10:20;;;;;;;35.43;22.42;;;;;;;9.10;53.67;100864.58;1843620;77;25307;-61
2021/03/24 15:13:00;;;;;;;30.37;19.85;;;;;;;9.07;53.83;100864.34;1818880;77;25287;-61
2021/03/24 15:16:08;;;;;;;36.73;22.32;;;;;;;9.04;54.05;100860.34;1846524;77;25320;-61
2021/03/24 15:19:04;;;;;;;34.53;22.45;;;;;;;9.00;54.17;100858.48;1799677;77;25772;-62
2021/03/24 15:21:39;;;;;;;36.08;23.42;;;;;;;8.96;54.29;100852.30;1784932;80;26134;-62
2021/03/24 15:24:49;;;;;;;32.13;21.35;;;;;;;8.92;54.45;100853.14;1784180;80;25599;-61
2021/03/24 15:27:23;;;;;;;34.13;20.50;;;;;;;8.89;54.51;100851.84;1788275;77;26093;-62
2021/03/24 15:33:05;;;;;;;33.98;21.52;;;;;;;8.76;54.67;100856.53;1708369;84;25739;-62
2021/03/24 15:35:49;;;;;;;29.75;20.02;;;;;;;8.68;54.81;100856.58;1678301;85;25630;-63
2021/03/24 15:38:42;;;;;;;30.12;18.95;;;;;;;8.64;55.05;100853.41;1678274;85;25579;-63
2021/03/24 15:41:27;;;;;;;27.80;17.98;;;;;;;8.59;55.20;100856.94;1637573;85;25584;-61
2021/03/24 15:44:29;;;;;;;27.65;17.12;;;;;;;8.52;55.27;100854.55;1612311;87;25587;-61
2021/03/24 15:47:15;;;;;;;28.75;18.55;;;;;;;8.54;55.57;100861.02;1888842;76;34567;-60
2021/03/24 15:49:52;;;;;;;27.67;18.27;;;;;;;8.43;55.74;100856.25;1856953;77;26044;-60
2021/03/24 15:52:24;;;;;;;28.42;18.82;;;;;;;8.38;55.90;100850.31;1859426;77;25756;-60
2021/03/24 15:54:59;;;;;;;32.98;19.90;;;;;;;8.33;55.92;100858.44;1859583;77;25530;-60
2021/03/24 15:57:57;;;;;;;36.38;23.12;;;;;;;8.29;56.13;100850.66;1859836;77;25624;-60
2021/03/24 16:01:01;;;;;;;44.98;26.17;;;;;;;8.27;56.26;100853.36;1859577;77;25483;-60
2021/03/24 16:03:51;;;;;;;29.20;20.35;;;;;;;8.25;56.40;100854.19;1846666;76;25671;-59
2021/03/24 16:06:33;;;;;;;34.58;19.87;;;;;;;8.21;56.56;100855.29;1785854;79;26159;-60
2021/03/24 16:09:38;;;;;;;29.60;19.90;;;;;;;8.19;56.72;100864.20;1806494;78;25732;-60
2021/03/24 16:12:49;;;;;;;32.38;19.75;;;;;;;8.16;56.78;100862.06;1787067;78;25604;-61
2021/03/24 16:15:33;;;;;;;34.75;20.37;;;;;;;8.13;56.94;100867.45;1775280;78;25282;-60
2021/03/24 16:18:23;;;;;;;34.73;21.50;;;;;;;8.10;56.97;100866.66;1798601;78;25265;-59
2021/03/24 16:21:04;;;;;;;35.85;20.15;;;;;;;8.06;57.19;100868.85;1827566;78;25891;-60
2021/03/24 16:23:51;;;;;;;33.73;20.57;;;;;;;8.04;57.31;100861.84;1838060;78;25811;-60
2021/03/24 16:26:40;;;;;;;41.83;23.02;;;;;;;8.01;57.43;100863.73;1797910;78;25551;-61
2021/03/24 16:29:07;;;;;;;;;;;;;;;7.99;57.57;100863.77;1729442;78;25585;-60
2021/03/24 16:31:49;;;;;;;43.80;23.50;;;;;;;7.93;57.53;100861.62;1788397;79;25520;-60
2021/03/24 16:35:02;;;;;;;44.03;23.65;;;;;;;7.90;57.54;100868.10;1800230;79;26145;-60
2021/03/24 16:37:58;;;;;;;36.80;23.75;;;;;;;7.86;57.56;100857.08;1800440;79;26098;-59
2021/03/24 16:40:51;;;;;;;31.02;20.10;;;;;;;7.82;57.75;100860.87;1786393;79;25511;-60
2021/03/24 16:43:30;;;;;;;28.50;19.50;;;;;;;7.78;57.92;100862.52;1803990;79;25745;-60
2021/03/24 16:46:31;;;;;;;32.80;20.47;;;;;;;7.74;57.98;100859.30;1809165;78;25612;-61
2021/03/24 16:49:07;;;;;;;33.20;21.35;;;;;;;7.69;58.05;100862.02;1782778;79;25817;-61
2021/03/24 16:51:47;;;;;;;31.85;21.10;;;;;;;7.64;58.24;100861.48;1788278;79;25478;-62
2021/03/24 16:54:48;;;;;;;29.65;21.05;;;;;;;7.61;58.32;100863.38;1751022;80;25596;-59
2021/03/24 16:57:32;;;;;;;32.78;19.70;;;;;;;7.57;58.41;100856.94;1786329;80;25536;-60
2021/03/24 17:00:19;;;;;;;35.13;21.68;;;;;;;7.54;58.51;100865.01;1786534;80;25273;-60
2021/03/24 17:03:17;;;;;;;36.68;22.55;;;;;;;7.50;58.67;100865.84;1786395;80;26898;-60
2021/03/24 17:06:01;;;;;;;37.67;22.13;;;;;;;7.46;58.77;100874.47;1777945;79;25815;-60
2021/03/24 17:09:05;;;;;;;37.45;23.60;;;;;;;7.43;58.87;100871.52;1806910;79;25435;-61
2021/03/24 17:11:52;;;;;;;42.03;24.27;;;;;;;7.38;58.99;100873.67;1813876;79;25421;-60
2021/03/24 17:14:33;;;;;;;39.13;23.90;;;;;;;7.35;59.05;100874.77;1788359;80;25481;-60
2021/03/24 17:17:37;;;;;;;42.48;24.87;;;;;;;7.33;59.27;100872.34;1791124;79;28109;-60
2021/03/24 17:20:31;;;;;;;49.38;28.35;;;;;;;7.32;59.29;100877.48;1785043;80;26570;-60
2021/03/24 17:23:15;;;;;;;49.58;26.97;;;;;;;7.29;59.54;100880.70;1783285;79;25478;-60
2021/03/24 17:25:45;;;;;;;68.25;38.45;;;;;;;7.24;59.51;100876.13;1789899;79;25645;-62
2021/03/24 17:28:30;;;;;;;47.60;27.85;;;;;;;7.22;59.72;100880.98;1763815;79;25385;-61
2021/03/24 17:31:14;;;;;;;44.98;26.40;;;;;;;7.19;59.72;100880.17;1795578;79;25781;-59
2021/03/24 17:33:57;;;;;;;42.67;23.73;;;;;;;7.18;59.94;100883.14;1796036;79;25729;-61
2021/03/24 17:37:10;;;;;;;44.35;24.70;;;;;;;7.15;59.87;100880.47;1756237;80;25133;-60
2021/03/24 17:39:48;;;;;;;39.83;23.50;;;;;;;7.14;60.03;100886.91;1769239;79;25306;-63
2021/03/24 17:42:49;;;;;;;43.45;25.05;;;;;;;7.11;60.00;100884.76;1768732;81;25517;-62
2021/03/24 17:45:29;;;;;;;42.38;23.98;;;;;;;7.10;60.15;100888.55;1768270;81;28079;-64
2021/03/24 17:48:07;;;;;;;48.25;25.20;;;;;;;7.08;60.28;100885.30;1768450;81;25419;-63
2021/03/24 17:50:51;;;;;;;46.95;24.80;;;;;;;7.07;60.23;100884.50;1767935;80;25273;-61
2021/03/24 17:53:47;;;;;;;47.05;24.77;;;;;;;7.05;60.42;100882.62;1768284;81;25449;-62
2021/03/24 17:56:54;;;;;;;45.50;24.32;;;;;;;7.03;60.44;100886.12;1778303;79;25316;-64
2021/03/24 17:59:47;;;;;;;44.53;25.40;;;;;;;7.03;60.50;100892.02;1788372;79;28090;-62
2021/03/24 18:02:29;;;;;;;43.50;25.97;;;;;;;6.99;60.56;100889.07;1766353;80;25452;-63
2021/03/24 18:05:07;;;;;;;47.30;27.27;;;;;;;6.97;60.65;100889.88;1766402;80;25311;-62
2021/03/24 18:07:41;;;;;;;49.18;27.73;;;;;;;6.96;60.71;100892.84;1766677;80;25349;-63
2021/03/24 18:10:13;;;;;;;49.73;26.35;;;;;;;6.96;60.79;100888.80;1766752;80;25518;-63
2021/03/24 18:12:48;;;;;;;52.83;25.40;;;;;;;6.93;60.80;100892.86;1763267;80;25824;-62
2021/03/24 18:15:29;;;;;;;43.13;25.20;;;;;;;6.90;60.91;100887.46;1766509;81;25559;-63
2021/03/24 18:18:14;;;;;;;44.40;24.82;;;;;;;6.89;61.00;100891.77;1799945;78;25436;-63
2021/03/24 18:20:48;;;;;;;51.75;25.15;;;;;;;6.89;61.09;100894.45;1813311;78;25488;-62
2021/03/24 18:23:26;;;;;;;48.13;26.33;;;;;;;6.85;61.15;100899.56;1822407;78;25441;-62
2021/03/24 18:26:11;;;;;;;86.63;41.83;;;;;;;6.83;61.22;100892.31;1818076;78;26599;-63
2021/03/24 18:28:44;;;;;;;56.00;28.12;;;;;;;6.84;61.38;100895.80;1822333;78;25299;-64
2021/03/24 18:31:34;;;;;;;47.08;25.57;;;;;;;6.82;61.37;100899.30;1822472;78;25572;-61
2021/03/24 18:34:28;;;;;;;55.12;26.68;;;;;;;6.83;61.39;100903.62;1812081;78;25447;-62
2021/03/24 18:37:03;;;;;;;58.10;28.10;;;;;;;6.79;61.53;100899.28;1784888;79;25286;-62
2021/03/24 18:39:35;;;;;;;51.75;27.32;;;;;;;6.77;61.59;100897.41;1779052;79;26693;-62
2021/03/24 18:42:15;;;;;;;57.50;28.32;;;;;;;6.77;61.74;100893.92;1767934;81;25499;-62
2021/03/24 18:44:50;;;;;;;63.48;29.25;;;;;;;6.74;61.78;100900.63;1768017;81;25301;-63
2021/03/24 18:47:27;;;;;;;62.27;28.55;;;;;;;6.71;61.86;100899.30;1748261;81;25462;-62
2021/03/24 18:49:56;;;;;;;58.68;27.87;;;;;;;6.68;61.95;100902.52;1739157;82;25275;-61
2021/03/24 18:52:31;;;;;;;59.25;27.98;;;;;;;6.66;61.99;100892.58;1739326;82;25712;-63
2021/03/24 18:55:33;;;;;;;57.78;29.85;;;;;;;6.66;62.16;100905.22;1750174;79;25654;-62
2021/03/24 18:58:22;;;;;;;65.87;29.70;;;;;;;6.65;62.25;100899.55;1804619;79;25314;-62
2021/03/24 19:00:57;;;;;;;70.28;29.20;;;;;;;6.64;62.39;100898.76;1804523;79;25494;-62
2021/03/24 19:03:28;;;;;;;64.82;29.85;;;;;;;6.60;62.45;100900.35;1756945;80;25579;-62
2021/03/24 19:06:14;;;;;;;64.67;28.83;;;;;;;6.59;62.55;100904.65;1758123;81;25696;-62
2021/03/24 19:08:42;;;;;;;66.15;29.60;;;;;;;6.58;62.57;100903.05;1758114;81;25548;-62
2021/03/24 19:11:40;;;;;;;68.60;31.75;;;;;;;6.57;62.61;100904.91;1757921;81;25608;-63
2021/03/24 19:14:48;;;;;;;64.05;28.90;;;;;;;6.57;62.60;100904.91;1758148;81;25447;-62
2021/03/24 19:17:37;;;;;;;61.37;28.52;;;;;;;6.57;62.72;100905.45;1728081;83;25310;-63
2021/03/24 19:20:32;;;;;;;66.33;28.95;;;;;;;6.56;62.88;100906.00;1754802;81;26233;-64
2021/03/24 19:23:20;;;;;;;63.55;28.73;;;;;;;6.54;62.97;100902.23;1754710;81;25750;-62
2021/03/24 19:26:08;;;;;;;74.87;30.85;;;;;;;6.53;62.94;100903.30;1732494;82;25642;-62
2021/03/24 19:28:35;;;;;;;61.37;29.32;;;;;;;6.51;63.17;100902.77;1732700;82;25472;-64
2021/03/24 19:31:06;;;;;;;67.90;29.85;;;;;;;6.50;63.25;100895.79;1732579;82;25331;-63